createdAt,value
2022-08-19T00:00:01.568Z,11.70
2022-08-19T00:05:14.160Z,12.48
2022-08-19T00:10:21.717Z,12.80
2022-08-19T00:15:27.501Z,13.05
2022-08-19T00:20:35.058Z,14.85
2022-08-19T00:25:40.046Z,14.48
2022-08-19T00:30:45.077Z,12.45
2022-08-19T00:35:56.045Z,13.57
2022-08-19T00:41:00.901Z,13.32
2022-08-19T00:46:06.072Z,12.30
2022-08-19T00:51:13.347Z,13.30
2022-08-19T00:56:18.372Z,12.65
2022-08-19T01:01:23.326Z,12.43
2022-08-19T01:06:31.794Z,10.50
2022-08-19T01:11:42.741Z,11.52
2022-08-19T01:16:48.978Z,11.33
2022-08-19T01:22:10.591Z,10.45
2022-08-19T01:27:22.304Z,13.98
2022-08-19T01:32:33.253Z,16.67
2022-08-19T01:37:46.600Z,15.43
2022-08-19T01:42:55.276Z,18.70
2022-08-19T01:48:02.227Z,17.80
2022-08-19T01:53:10.552Z,15.50
2022-08-19T01:58:24.386Z,14.13
2022-08-19T02:03:30.033Z,14.73
2022-08-19T02:08:37.029Z,12.68
2022-08-19T02:13:44.369Z,12.80
2022-08-19T02:18:49.648Z,14.85
2022-08-19T02:23:55.058Z,15.77
2022-08-19T02:29:02.371Z,16.05
2022-08-19T02:34:07.190Z,16.77
2022-08-19T02:39:11.952Z,16.75
2022-08-19T02:44:29.623Z,16.42
2022-08-19T02:49:35.611Z,15.77
2022-08-19T02:54:40.567Z,14.75
2022-08-19T02:59:47.846Z,14.25
2022-08-19T03:04:53.189Z,13.57
2022-08-19T03:09:58.908Z,12.52
2022-08-19T03:15:07.512Z,12.20
2022-08-19T03:20:14.388Z,12.80
2022-08-19T03:25:19.205Z,13.30
2022-08-19T03:30:26.444Z,13.73
2022-08-19T03:35:31.723Z,14.25
2022-08-19T03:40:40.306Z,13.57
2022-08-19T03:45:48.501Z,13.43
2022-08-19T03:50:53.040Z,13.77
2022-08-19T03:55:59.046Z,13.70
2022-08-19T04:01:06.219Z,13.65
2022-08-19T04:06:15.360Z,13.38
2022-08-19T04:11:23.600Z,13.50
2022-08-19T04:16:52.266Z,13.98
2022-08-19T04:21:58.485Z,15.25
2022-08-19T04:27:03.704Z,16.05
2022-08-19T04:32:10.962Z,16.42
2022-08-19T04:37:15.659Z,17.38
2022-08-19T04:42:33.997Z,17.27
2022-08-19T04:47:48.038Z,15.75
2022-08-19T04:52:57.043Z,15.35
2022-08-19T04:58:02.722Z,16.35
2022-08-19T05:03:10.170Z,16.90
2022-08-19T05:08:31.362Z,16.50
2022-08-19T05:13:44.049Z,17.33
2022-08-19T05:19:04.280Z,17.10
2022-08-19T05:24:10.980Z,15.48
2022-08-19T05:29:17.423Z,17.92
2022-08-19T05:34:27.175Z,17.58
2022-08-19T05:39:33.614Z,16.45
2022-08-19T05:44:45.073Z,17.27
2022-08-19T05:54:58.412Z,16.77
2022-08-19T06:00:06.078Z,16.17
2022-08-19T06:05:18.990Z,17.20
2022-08-19T06:10:23.796Z,17.50
2022-08-19T06:15:29.102Z,17.33
2022-08-19T06:20:55.000Z,16.98
2022-08-19T06:26:00.543Z,16.70
2022-08-19T06:31:10.123Z,17.13
2022-08-19T06:36:28.130Z,16.05
2022-08-19T06:41:34.278Z,14.52
2022-08-19T06:46:39.930Z,15.27
2022-08-19T06:51:50.612Z,14.73
2022-08-19T06:56:57.522Z,14.63
2022-08-19T07:02:03.632Z,14.82
2022-08-19T07:07:21.146Z,15.57
2022-08-19T07:12:27.201Z,14.98
2022-08-19T07:17:31.785Z,14.35
2022-08-19T07:22:43.087Z,14.20
2022-08-19T07:27:49.067Z,14.63
2022-08-19T07:32:59.680Z,14.73
2022-08-19T07:38:11.408Z,14.27
2022-08-19T07:43:17.368Z,12.82
2022-08-19T07:48:26.332Z,12.27
2022-08-19T07:53:39.546Z,12.93
2022-08-19T07:58:47.606Z,12.52
2022-08-19T08:04:06.714Z,13.32
2022-08-19T08:09:18.685Z,11.90
2022-08-19T08:14:35.144Z,13.50
2022-08-19T08:19:42.152Z,14.40
2022-08-19T08:24:49.530Z,14.45
2022-08-19T08:29:55.140Z,14.18
2022-08-19T08:35:00.026Z,16.08
2022-08-19T08:40:13.054Z,15.93
2022-08-19T08:45:21.485Z,12.90
2022-08-19T08:50:33.896Z,10.40
2022-08-19T08:55:41.588Z,8.13
2022-08-19T09:00:50.213Z,8.40
2022-08-19T09:06:03.230Z,5.50
2022-08-19T09:11:42.090Z,5.43
2022-08-19T09:16:43.614Z,5.50
2022-08-19T09:21:49.254Z,5.65
2022-08-19T09:26:56.426Z,6.40
2022-08-19T09:32:02.395Z,6.88
2022-08-19T09:37:07.488Z,8.05
2022-08-19T09:42:16.629Z,8.15
2022-08-19T09:47:40.784Z,8.48
2022-08-19T09:52:55.432Z,9.43
2022-08-19T09:58:05.963Z,8.82
2022-08-19T10:03:12.550Z,8.20
2022-08-19T10:08:17.647Z,8.07
2022-08-19T10:13:27.997Z,5.00
2022-08-19T10:18:35.238Z,3.58
2022-08-19T10:23:40.763Z,3.20
2022-08-19T10:28:48.438Z,3.10
2022-08-19T10:33:59.243Z,3.00
2022-08-19T10:39:13.906Z,2.60
2022-08-19T10:44:22.582Z,2.50
2022-08-19T10:49:28.053Z,2.22
2022-08-19T10:54:45.231Z,2.17
2022-08-19T10:59:52.574Z,2.67
2022-08-19T11:04:58.333Z,2.42
2022-08-19T11:10:12.941Z,2.60
2022-08-19T11:15:21.129Z,2.65
2022-08-19T11:20:26.957Z,3.00
2022-08-19T11:25:31.615Z,3.10
2022-08-19T11:30:41.052Z,2.50
2022-08-19T11:35:46.084Z,2.13
2022-08-19T11:40:58.979Z,1.73
2022-08-19T11:46:08.151Z,1.60
2022-08-19T11:51:14.632Z,2.00
2022-08-19T11:56:19.725Z,2.17
2022-08-19T12:01:28.923Z,2.33
2022-08-19T12:06:36.270Z,2.47
2022-08-19T12:11:41.736Z,2.63
2022-08-19T12:16:51.564Z,2.35
2022-08-19T12:22:04.234Z,2.40
2022-08-19T12:27:12.662Z,2.15
2022-08-19T12:32:20.233Z,2.40
2022-08-19T12:37:25.165Z,2.00
2022-08-19T12:42:29.651Z,2.40
2022-08-19T12:47:38.016Z,2.72
2022-08-19T12:52:53.114Z,2.88
2022-08-19T12:57:57.773Z,2.40
2022-08-19T13:03:04.973Z,2.90
2022-08-19T13:08:09.957Z,2.47
2022-08-19T13:13:14.582Z,2.20
2022-08-19T13:18:21.791Z,2.30
2022-08-19T13:23:27.829Z,2.08
2022-08-19T13:28:52.764Z,2.55
2022-08-19T13:34:00.033Z,2.50
2022-08-19T13:39:04.676Z,2.42
2022-08-19T13:44:10.041Z,2.30
2022-08-19T13:49:24.471Z,2.42
2022-08-19T13:54:29.238Z,2.38
2022-08-19T13:59:34.004Z,2.50
2022-08-19T14:04:41.624Z,2.30
2022-08-19T14:09:47.103Z,2.08
2022-08-19T14:14:53.945Z,1.70
2022-08-19T14:20:10.645Z,1.50
2022-08-19T14:25:22.285Z,1.33
2022-08-19T14:35:41.037Z,1.10
2022-08-19T14:40:46.898Z,1.20
2022-08-19T14:45:52.328Z,1.30
2022-08-19T14:51:00.394Z,1.30
2022-08-19T14:56:05.578Z,1.27
2022-08-19T15:01:10.756Z,1.13
2022-08-19T15:06:18.531Z,1.10
2022-08-19T15:11:28.815Z,1.17
2022-08-19T15:16:33.511Z,0.90
2022-08-19T15:21:40.793Z,0.80
2022-08-19T15:26:49.297Z,0.75
2022-08-19T15:31:56.271Z,0.80
2022-08-19T15:37:06.189Z,0.80
2022-08-19T15:42:10.919Z,0.80
2022-08-19T15:47:22.938Z,0.70
2022-08-19T15:52:30.052Z,0.70
2022-08-19T15:57:47.147Z,0.70
2022-08-19T16:03:04.231Z,0.50
2022-08-19T16:08:11.991Z,0.57
2022-08-19T16:13:16.606Z,0.55
2022-08-19T16:18:21.195Z,0.52
2022-08-19T16:23:29.207Z,0.65
2022-08-19T16:28:34.029Z,0.68
2022-08-19T16:33:38.977Z,0.60
2022-08-19T16:38:47.090Z,0.60
2022-08-19T16:43:54.865Z,0.80
2022-08-19T16:48:59.793Z,0.80
2022-08-19T16:54:32.541Z,0.70
2022-08-19T16:59:52.551Z,0.80
2022-08-19T17:04:59.899Z,0.90
2022-08-19T17:10:06.126Z,0.80
2022-08-19T17:15:11.905Z,0.85
2022-08-19T17:20:19.523Z,0.70
2022-08-19T17:25:24.080Z,0.70
2022-08-19T17:30:33.253Z,0.80
2022-08-19T17:35:44.280Z,0.80
2022-08-19T17:40:49.958Z,0.70
2022-08-19T17:45:56.125Z,0.82
2022-08-19T17:51:03.582Z,0.80
2022-08-19T17:56:08.858Z,0.80
2022-08-19T18:01:15.765Z,0.90
2022-08-19T18:06:24.549Z,0.80
2022-08-19T18:11:29.059Z,0.70
2022-08-19T18:16:33.735Z,0.80
2022-08-19T18:21:42.435Z,0.75
2022-08-19T18:26:47.239Z,0.70
2022-08-19T18:31:51.789Z,0.80
2022-08-19T18:36:59.133Z,0.70
2022-08-19T18:42:16.370Z,0.88
2022-08-19T18:47:33.484Z,0.80
2022-08-19T18:52:40.681Z,0.85
2022-08-19T18:57:45.754Z,0.80
2022-08-19T19:02:50.309Z,0.75
2022-08-19T19:07:57.501Z,0.80
2022-08-19T19:13:02.208Z,0.90
2022-08-19T19:18:06.806Z,1.08
2022-08-19T19:23:13.991Z,1.10
2022-08-19T19:28:25.667Z,1.02
2022-08-19T19:33:31.049Z,1.00
2022-08-19T19:38:38.841Z,1.13
2022-08-19T19:43:44.924Z,0.95
2022-08-19T19:48:50.181Z,1.15
2022-08-19T19:53:57.952Z,1.10
2022-08-19T19:59:03.520Z,1.20
2022-08-19T20:04:08.131Z,1.50
2022-08-19T20:09:19.927Z,1.10
2022-08-19T20:14:27.154Z,1.40
2022-08-19T20:19:37.305Z,1.27
2022-08-19T20:24:45.625Z,1.38
2022-08-19T20:29:50.271Z,1.48
2022-08-19T20:34:57.353Z,1.10
2022-08-19T20:40:09.904Z,1.45
2022-08-19T20:45:27.999Z,1.40
2022-08-19T20:50:40.148Z,1.30
2022-08-19T20:55:50.483Z,1.40
2022-08-19T21:00:57.373Z,1.30
2022-08-19T21:06:02.151Z,1.48
2022-08-19T21:11:10.111Z,1.60
2022-08-19T21:16:14.781Z,1.70
2022-08-19T21:21:20.237Z,1.70
2022-08-19T21:26:27.555Z,1.80
2022-08-19T21:31:32.647Z,1.70
2022-08-19T21:36:37.205Z,1.95
2022-08-19T21:41:44.933Z,1.80
2022-08-19T21:46:50.648Z,1.90
2022-08-19T21:51:58.429Z,2.05
2022-08-19T21:57:07.025Z,2.20
2022-08-19T22:02:21.488Z,2.28
2022-08-19T22:07:26.370Z,2.30
2022-08-19T22:12:37.435Z,2.47
2022-08-19T22:17:42.983Z,2.50
2022-08-19T22:22:50.255Z,2.20
2022-08-19T22:28:00.564Z,2.30
2022-08-19T22:33:10.466Z,2.50
2022-08-19T22:38:16.317Z,2.70
2022-08-19T22:43:26.243Z,2.40
2022-08-19T22:48:33.919Z,2.45
2022-08-19T22:53:41.465Z,2.88
2022-08-19T22:58:50.662Z,2.88
2022-08-19T23:03:56.656Z,3.35
2022-08-19T23:09:01.427Z,3.33
2022-08-19T23:14:12.901Z,3.10
2022-08-19T23:19:18.092Z,2.80
2022-08-19T23:24:22.719Z,3.20
2022-08-19T23:29:42.371Z,3.10
2022-08-19T23:34:47.705Z,2.97
2022-08-19T23:39:52.561Z,2.75
2022-08-19T23:45:03.897Z,3.20
2022-08-19T23:50:13.834Z,3.10
2022-08-19T23:55:20.167Z,2.70
